Relevés Aéroport

LFBO - Toulouse/Blagnac, France
Distance from station: WNW 57mi, 92km
Updated: Tue, 11-Aug-2020 6:30pm CEST
Clear
Clear
 Wind from ESE
Wind: ESE 14 mph , 22 km/h
Temperature: 91°F , 33°C
Heat Index: 95°F , 35°C
Dew Point: 68°F , 20°C
Humidity: 46%
Barometer: 29.88 inHg , 1012 hPa
Summary: Clear
Visibility: greater than 7 miles , 10 km
2020/08/11 16:30 LFBO 111630Z AUTO 12012KT CAVOK 33/20 Q1012 TEMPO VRB20G30KT TSRA BKN090CB
LFMK - Carcassonne/Salv, France
Distance from station: W 2mi, 3km
Updated: Tue, 11-Aug-2020 6:30pm CEST
Thunderstorm
Thunderstorm
 Wind from E
Wind: E 20 mph , 31 km/h
Temperature: 82°F , 28°C
Heat Index: 86°F , 30°C
Dew Point: 70°F , 21°C
Humidity: 66%
Barometer: 29.91 inHg , 1013 hPa
Clouds: Thunderstorm
Visibility: 6 miles , 10 km
2020/08/11 16:30 LFMK 111630Z AUTO 08017KT 9999 ///TCU 28/21 Q1013 TEMPO VRB25G40KT
 
LFCK - Castres-Mazamet, France
Distance from station: N 24mi, 38km
Updated: Tue, 11-Aug-2020 6:30pm CEST
Clear
Clear
 Wind from SE
Wind: SE 17 mph , 28 km/h
Temperature: 88°F , 31°C
Heat Index: 90°F , 32°C
Dew Point: 64°F , 18°C
Humidity: 46%
Barometer: 29.94 inHg , 1014 hPa
Summary: Clear
Visibility: greater than 7 miles , 10 km
2020/08/11 16:30 LFCK 111630Z AUTO 14015KT CAVOK 31/18 Q1014 TEMPO 13016G28KT SCT090TCU
LFMP - Perpignan/Rivesa, France
Distance from station: SE 43mi, 69km
Updated: Tue, 11-Aug-2020 6:30pm CEST
Clear
Clear
 Wind from ENE
Wind: ENE 8 mph , 13 km/h
Temperature: 82°F , 28°C
Heat Index: 86°F , 30°C
Dew Point: 72°F , 22°C
Humidity: 70%
Barometer: 29.94 inHg , 1014 hPa
Summary: Clear
Visibility: greater than 7 miles , 10 km
2020/08/11 16:30 LFMP 111630Z AUTO 06007KT 030V090 CAVOK 28/22 Q1014 TEMPO BKN040TCU BECMG 1200 BR
 
LFMU - Beziers/Vias, France
Distance from station: E 51mi, 82km
Updated: Tue, 11-Aug-2020 6:30pm CEST
Clear
Clear
 Wind from SSE
Wind: SSE 5 mph , 7 km/h
Temperature: 77°F , 25°C
Dew Point: 72°F , 22°C
Humidity: 83%
Barometer: 29.94 inHg , 1014 hPa
Summary: Clear
Visibility: greater than 7 miles , 10 km
2020/08/11 16:30 LFMU 111630Z AUTO 16004KT 110V190 CAVOK 25/22 Q1014 TEMPO 14015KT 1200 BR OVC002
LFMT - Frejorgues/Montp, France
Distance from station: ENE 85mi, 136km
Updated: Tue, 11-Aug-2020 6:30pm CEST
Few Clouds
Few Clouds
 Wind from S
Wind: S 12 mph , 19 km/h
Temperature: 79°F , 26°C
Dew Point: 73°F , 23°C
Humidity: 84%
Barometer: 29.94 inHg , 1014 hPa
Clouds: Few Clouds
Visibility: 6 miles , 10 km
Cloud details: Few Clouds 700 ft
2020/08/11 16:30 LFMT 111630Z AUTO 19010KT 160V230 9999 FEW007 26/23 Q1014 TEMPO BKN006
 
LEGE - Gerona/Costa Bra, Spain
Distance from station: SSE 94mi, 152km
Updated: Tue, 11-Aug-2020 6:30pm CEST
Clear
Clear
 Wind from S
Wind: S 14 mph , 22 km/h
Temperature: 86°F , 30°C
Heat Index: 87°F , 31°C
Dew Point: 63°F , 17°C
Humidity: 46%
Barometer: 29.94 inHg , 1014 hPa
Summary: Clear
Visibility: greater than 7 miles , 10 km
2020/08/11 16:30 LEGE 111630Z 18012KT CAVOK 30/17 Q1014

Metar display script from Saratoga-Weather.org